TOURFACTS.DK  
Stats and Facts from Tour de France.

Tour de France 2018 starts in 14 days
  Riders   Stages   Teams   Summits   Yearly  


 
Search by year

After 2017 - Stage 21:
 14824 starters.
  5132 different riders.
  639 teams.
  2232 stages.
  456 restdays.
  439589.60 km.
  5653 abandonnees.


Top 3
GC
Christopher Froome86:20:55
Rigoberto Urán86:21:49
Romain Bardet86:23:15
Climb
Warren Barguil169 pt.
Primoz Roglic80 pt.
Thomas De Gendt64 pt.
Sprint
Michael Matthews359 pt.
André Greipel234 pt.
Edvald Boasson Hagen220 pt.
Youth
Simon Yates86:27:09
Louis Meintjes86:29:15
Emanuel Buchmann86:54:16
Facts from Tour de France 1995
  |   Stages.  |   Stage winners.  |   Days in yellow  |   Average speed.  |   Route.  |   Teams.  |   All riders.  |   Rookies.  |  

  |   Withdrawls.  |   GC.  |   Polka  |   Green  |   White  |   Summits. (In tour)  |   Miscellaneous.  |  

Stage 12 on 14 - 07 - 1995
         Owning:    Miguel Indurain    
Pick a stage:  Pro 1 2 3 4 5 6 7 8 9 10 11 12 13 14 15 17 18 19 20
  Saint-ÉtienneMende | Dist: 222.50 km.
Cat: 3Côte de Saint Maurice en GourgoisFRAThierry Marie
10 points
 
Cat: 4Côte de MalaveilleITADario Bottaro
5 points
 
Cat: 3Col de BaraquesITAMassimo Podenzana
10 points
 
Cat: 2la Causse de MendeFRALaurent Jalabert
20 points
 

Average speed for all riders in stage:  40,051 km./hr.
    Place:Name:Team:Time:Km/h:
FRALaurent JalabertESPO.N.C.E.05:19:05  +  00:00:00=41,839 
ITAMassimo PodenzanaITABrescialat05:19:34  +  00:00:29=41,775 
ITADario BottaroITAGewiss-Ballan05:19:47  +  00:00:42=41,747 
4 ESPMelchor MauriESPO.N.C.E.05:19:53  +  00:00:48=41,734 
5 ITAAndrea PeronUSAMotorola05:20:35  +  00:01:30=41,643 
6 ITAMarco PantaniITACarrera-Tassoni05:24:46  +  00:05:41=41,106 
7 DENBjarne RiisITAGewiss-Ballan05:24:46  +  00:05:41=41,106 
8 ESPMiguel IndurainESPBanesto05:24:46  +  00:05:41=41,106 
9 FRALaurent BrochardFRAFestina05:24:58  +  00:05:53=41,081 
10 SUIAlex ZülleESPO.N.C.E.05:25:03  +  00:05:58=41,071 
11 ITAIvan GottiITAGewiss-Ballan05:25:23  +  00:06:18=41,029 
12 DENTony RomingerBELMapei-GP05:25:23  +  00:06:18=41,029 
13 ESPFernando EscartinBELMapei-GP05:25:23  +  00:06:18=41,029 
14 ESPLaudelino CubinoESPKelme-Avianca05:25:35  +  00:06:30=41,003 
15 ITAClaudio ChiappucciITACarrera-Tassoni05:25:35  +  00:06:30=41,003 
16 ITAPaolo LanfranchiITABrescialat05:25:35  +  00:06:30=41,003 
17 BELJohan BruyneelESPO.N.C.E.05:25:35  +  00:06:30=41,003 
18 MARRichard VirenqueFRAFestina05:25:35  +  00:06:30=41,003 
19 ESPArsenio GonzálezBELMapei-GP05:25:51  +  00:06:46=40,970 
20 FRALaurent MadouasFRACastorama05:25:51  +  00:06:46=40,970 
21 URSVladimir PoulnikovITATelecom-ZG-Selle Italia05:26:06  +  00:07:01=40,938 
22 URSViatcheslav EkimovNLDNovell05:26:14  +  00:07:09=40,922 
23 SUIBeat ZbergITACarrera-Tassoni05:26:16  +  00:07:11=40,917 
24 SUILaurent DufauxFRAFestina05:26:16  +  00:07:11=40,917 
25 COLHernán BuenahoraESPKelme-Avianca05:26:16  +  00:07:11=40,917 
26 NEDErik BreukinkESPO.N.C.E.05:26:29  +  00:07:24=40,890 
27 ESPMariano RojasESPO.N.C.E.05:26:29  +  00:07:24=40,890 
28 FRAFrançois SimonFRACastorama05:26:29  +  00:07:24=40,890 
29 COLFederico FernandezESPKelme-Avianca05:26:29  +  00:07:24=40,890 
30 GERUdo BöltsITATelecom-ZG-Selle Italia05:26:29  +  00:07:24=40,890 
31 DENBo HamburgerNLDTVM-Polis Direct05:26:29  +  00:07:24=40,890 
32 DENJesper SkibbyNLDTVM-Polis Direct05:26:29  +  00:07:24=40,890 
33 COLAlvaro MejiaUSAMotorola05:26:46  +  00:07:41=40,855 
34 ITABruno CenghialtaITAGewiss-Ballan05:26:46  +  00:07:41=40,855 
35 ITAMassimiliano LelliITAMercatone Uno-Saeco05:26:55  +  00:07:50=40,836 
36 FRAJean-François BernardFRAChazal-MBK-Konig05:26:55  +  00:07:50=40,836 
37 FRAYvon LedanoisFRAGan05:26:55  +  00:07:50=40,836 
38 VENLeonardo SierraITACarrera-Tassoni05:27:28  +  00:08:23=40,768 
39 USALance ArmstrongUSAMotorola05:27:42  +  00:08:37=40,738 
40 FRAÉric BoyerITATeam Polti05:27:45  +  00:08:40=40,732 
41 ESPHerminio ZabalaESPO.N.C.E.05:27:45  +  00:08:40=40,732 
42 SUIGianni BugnoITAMG Maglificio-Technogym05:27:45  +  00:08:40=40,732 
43 URSAndrei TchmilBELLotto-Isoglass05:27:45  +  00:08:40=40,732 
44 ITAAndrea TafiBELMapei-GP05:28:02  +  00:08:57=40,697 
45 FRAJean-Cyril RobinFRAFestina05:28:02  +  00:08:57=40,697 
46 NEDEddy BouwmansNLDNovell05:28:10  +  00:09:05=40,681 
47 URSDjamolidine AbduzhaparovNLDNovell05:28:24  +  00:09:19=40,652 
48 RUSPavel TonkovITALampre-Panaria05:28:24  +  00:09:19=40,652 
49 NEDErik DekkerNLDNovell05:28:24  +  00:09:19=40,652 
50 ENGMaximilian SciandriITAMG Maglificio-Technogym05:29:12  +  00:10:07=40,553 
51 ITAFlavio VanzellaITAMG Maglificio-Technogym05:29:12  +  00:10:07=40,553 
52 ITAFranco VonaITAMG Maglificio-Technogym05:29:12  +  00:10:07=40,553 
53 ITAAlberto ElliITAMG Maglificio-Technogym05:29:12  +  00:10:07=40,553 
54 ITAEnrico ZainaITACarrera-Tassoni05:29:12  +  00:10:07=40,553 
55 BELJohan MuseeuwBELMapei-GP05:29:41  +  00:10:36=40,493 
56 AUTGeorg TotschnigITATeam Polti05:29:41  +  00:10:36=40,493 
57 ITAGabriele ColomboITAGewiss-Ballan05:30:54  +  00:11:49=40,345 
58 ITAFrancesco FrattiniITAGewiss-Ballan05:30:54  +  00:11:49=40,345 
59 URSSerguei OutschakovITATeam Polti05:31:29  +  00:12:24=40,274 
60 AUSNeil StephensESPO.N.C.E.05:33:11  +  00:14:06=40,068 
61 ESPRamon GonzalezESPBanesto05:33:23  +  00:14:18=40,044 
62 FRAGérard RuéESPBanesto05:33:23  +  00:14:18=40,044 
63 ESPVicente AparicioESPBanesto05:33:23  +  00:14:18=40,044 
64 SUIBruno BoscardinFRAFestina05:34:55  +  00:15:50=39,861 
65 BELWilfried PeetersBELMapei-GP05:34:55  +  00:15:50=39,861 
66 ITAOscar PelliccioliITATeam Polti05:34:55  +  00:15:50=39,861 
67 FRADidier RousFRAGan05:34:55  +  00:15:50=39,861 
68 ITAGianluca BortolamiBELMapei-GP05:34:55  +  00:15:50=39,861 
69 ITAMarcello SiboniITACarrera-Tassoni05:34:55  +  00:15:50=39,861 
70 ESPJosé Angel VidalESPKelme-Avianca05:34:55  +  00:15:50=39,861 
71 URSArturas KasputisFRAChazal-MBK-Konig05:34:55  +  00:15:50=39,861 
72 NEDMaarten Den BakkerNLDTVM-Polis Direct05:34:55  +  00:15:50=39,861 
73 MEXMiguel ArroyoFRAChazal-MBK-Konig05:34:55  +  00:15:50=39,861 
74 SUIRolf JärmannITAMG Maglificio-Technogym05:34:55  +  00:15:50=39,861 
75 FRAArmand De Las CuevasFRACastorama05:34:55  +  00:15:50=39,861 
76 BELPeter FarazijnBELLotto-Isoglass05:34:55  +  00:15:50=39,861 
77 GERRolf AldagITATelecom-ZG-Selle Italia05:34:55  +  00:15:50=39,861 
78 AUSStephen HodgeFRAFestina05:34:55  +  00:15:50=39,861 
79 ITAGiancarlo PeriniITABrescialat05:34:55  +  00:15:50=39,861 
80 ITAStefano ColagèITATelecom-ZG-Selle Italia05:34:55  +  00:15:50=39,861 
81 URSArvis PiziksNLDNovell05:34:55  +  00:15:50=39,861 
82 ITAFabio CasartelliUSAMotorola05:40:19  +  00:21:14=39,228 
83 DDRErik ZabelITATelecom-ZG-Selle Italia05:40:19  +  00:21:14=39,228 
84 ITANicola LodaITAMG Maglificio-Technogym05:40:19  +  00:21:14=39,228 
85 ITAGian Matteo FagniniITAMercatone Uno-Saeco05:40:19  +  00:21:14=39,228 
86 ITAEros PoliITAMercatone Uno-Saeco05:40:19  +  00:21:14=39,228 
87 ITAMarco SerpelliniITALampre-Panaria05:40:19  +  00:21:14=39,228 
88 ITAAndrea FerrigatoITATelecom-ZG-Selle Italia05:40:19  +  00:21:14=39,228 
89 ITARossano BrasiITATeam Polti05:40:19  +  00:21:14=39,228 
90 FRAFrançois LemarchandFRAGan05:40:19  +  00:21:14=39,228 
91 SUIFabian JekerFRAFestina05:40:19  +  00:21:14=39,228 
92 FRAGilles TalmantFRACastorama05:40:19  +  00:21:14=39,228 
93 FRAFrancis MoreauFRAGan05:40:19  +  00:21:14=39,228 
94 ESPJosé UriarteESPBanesto05:40:19  +  00:21:14=39,228 
95 POLZenon JaskulaITAAki-Gipiemme05:40:19  +  00:21:14=39,228 
96 FRAThierry MarieFRACastorama05:40:19  +  00:21:14=39,228 
97 ITAGiovanni FidanzaITATeam Polti05:40:19  +  00:21:14=39,228 
98 NEDBart VoskampNLDTVM-Polis Direct05:40:19  +  00:21:14=39,228 
99 BELJim Van De LaerNLDTVM-Polis Direct05:40:19  +  00:21:14=39,228 
100 ITAWladimir BelliITALampre-Panaria05:40:19  +  00:21:14=39,228 
101 ITADavide PeronaITALampre-Panaria05:40:19  +  00:21:14=39,228 
102 COLJulio CabreraESPKelme-Avianca05:40:19  +  00:21:14=39,228 
103 ITAMauro BettinITAAki-Gipiemme05:40:19  +  00:21:14=39,228 
104 COLHector CastanoESPKelme-Avianca05:40:19  +  00:21:14=39,228 
105 FRABruno CornilletFRAChazal-MBK-Konig05:40:19  +  00:21:14=39,228 
106 FRADante RezzeITAAki-Gipiemme05:40:19  +  00:21:14=39,228 
107 ITADavide CassaniITAMG Maglificio-Technogym05:40:19  +  00:21:14=39,228 
108 ITAMarco MilesiITABrescialat05:40:19  +  00:21:14=39,228 
109 ITASergio BarberoITACarrera-Tassoni05:40:19  +  00:21:14=39,228 
110 ITAMario ScireaITATeam Polti05:40:19  +  00:21:14=39,228 
111 ITAGuido BontempiITAGewiss-Ballan05:40:19  +  00:21:14=39,228 
112 ITAGianluca GoriniITAAki-Gipiemme05:40:19  +  00:21:14=39,228 
113 FRAGilles BouvardFRAChazal-MBK-Konig05:40:19  +  00:21:14=39,228 
114 ITAAlberto VolpiITAGewiss-Ballan05:40:19  +  00:21:14=39,228 
115 ESPMarino MonjeESPBanesto05:40:19  +  00:21:14=39,228 
116 ITAGiovanni LombardiITATeam Polti05:40:19  +  00:21:14=39,228 
117 COLAngel OchoaESPKelme-Avianca05:40:19  +  00:21:14=39,228 
118 NEDFrans MaassenNLDNovell05:40:19  +  00:21:14=39,228 
119 ITAGilberto SimoniITAAki-Gipiemme05:40:19  +  00:21:14=39,228 
120 ESPCarmelo MirandaESPBanesto05:40:19  +  00:21:14=39,228 
121 UKRAlexander GontchenkovITALampre-Panaria05:40:19  +  00:21:14=39,228 
122 FRAThierry LaurentFRACastorama05:40:19  +  00:21:14=39,228 
123 FRAThomas DavyESPBanesto05:40:19  +  00:21:14=39,228 
124 USAFrankie AndreuUSAMotorola05:40:19  +  00:21:14=39,228 
125 ITAAlessio GallettiITALampre-Panaria05:40:19  +  00:21:14=39,228 
126 NZLStephen SwartUSAMotorola05:40:19  +  00:21:14=39,228 
127 ENGSean YatesUSAMotorola05:40:19  +  00:21:14=39,228 
128 GERDirk BaldingerITATeam Polti05:40:19  +  00:21:14=39,228 
129 DDRJens HeppnerITATelecom-ZG-Selle Italia05:40:19  +  00:21:14=39,228 
130 CANSteve BauerUSAMotorola05:40:19  +  00:21:14=39,228 
131 ITAMassimo DonatiITAMercatone Uno-Saeco05:40:19  +  00:21:14=39,228 
132 FRAChristophe CapelleFRAGan05:40:19  +  00:21:14=39,228 
133 ESPAitor GarmendiaESPBanesto05:41:43  +  00:22:38=39,067 
134 FRAGilles DelionFRAChazal-MBK-Konig05:42:08  +  00:23:03=39,020 

Withdrawls: 7
 
Rider
Team
Reason
36  URSDimitri KonychevITAAki-GipiemmeDid not finish
124  NEDTristan HoffmanNLDTVM-Polis DirectDid not finish
149  FRABruno ThiboutFRACastoramaDid not finish
166  FRAFrédéric MoncassinNLDNovellDid not finish
168  NEDLeon van BonNLDNovellDid not finish
183  FRAJean-Pierre BourgeotFRAChazal-MBK-KonigDid not finish
194  ITAAngelo LecchiITABrescialatDid not finish

Todays birthdays.

1886  Aldo Bettini
1890  Marc Mesnard
1896  Jean Garby
1899  Raymond Englebert
1902  Julien Perrain
1906  Auguste Encrine
1909  Remo Bertoni
1915  Jan Lambrichs
1938  Mario Minieri
1938  Juan Sanchez
1942  Flaviano Vicentini
1952  Marcel Laurens
1961  Manuel Cardenas
1962  Yvon Madiot
1966  Luca Gelfi
1993  Dylan Groenewegen




Visits: